sensor_id;sensor_type;location;lat;lon;timestamp;P1;durP1;ratioP1;P2;durP2;ratioP2
5630;SDS011;2837;50.990;7.124;2023-07-30T05:02:16;148.97;;;9.83;;
5630;SDS011;2837;50.990;7.124;2023-07-30T05:04:42;153.67;;;9.60;;
5630;SDS011;2837;50.990;7.124;2023-07-30T05:07:08;151.70;;;9.60;;
5630;SDS011;2837;50.990;7.124;2023-07-30T05:09:34;155.07;;;10.00;;
5630;SDS011;2837;50.990;7.124;2023-07-30T05:12:00;154.87;;;11.80;;
5630;SDS011;2837;50.990;7.124;2023-07-30T05:14:26;148.40;;;8.80;;
5630;SDS011;2837;50.990;7.124;2023-07-30T05:16:51;150.00;;;9.63;;
5630;SDS011;2837;50.990;7.124;2023-07-30T05:19:17;150.30;;;9.90;;
5630;SDS011;2837;50.990;7.124;2023-07-30T05:21:43;153.27;;;10.30;;
5630;SDS011;2837;50.990;7.124;2023-07-30T05:24:09;148.57;;;9.23;;
5630;SDS011;2837;50.990;7.124;2023-07-30T05:26:35;149.00;;;9.73;;
5630;SDS011;2837;50.990;7.124;2023-07-30T05:29:01;150.30;;;10.07;;
5630;SDS011;2837;50.990;7.124;2023-07-30T05:31:28;152.17;;;10.00;;
5630;SDS011;2837;50.990;7.124;2023-07-30T05:33:54;150.00;;;9.23;;
5630;SDS011;2837;50.990;7.124;2023-07-30T05:36:20;149.53;;;9.63;;
5630;SDS011;2837;50.990;7.124;2023-07-30T05:38:46;146.77;;;8.93;;
5630;SDS011;2837;50.990;7.124;2023-07-30T05:41:11;147.23;;;8.40;;
5630;SDS011;2837;50.990;7.124;2023-07-30T05:43:37;148.80;;;8.30;;
5630;SDS011;2837;50.990;7.124;2023-07-30T05:46:03;147.60;;;9.17;;
5630;SDS011;2837;50.990;7.124;2023-07-30T05:48:29;152.20;;;8.70;;
5630;SDS011;2837;50.990;7.124;2023-07-30T05:50:55;149.17;;;9.50;;
5630;SDS011;2837;50.990;7.124;2023-07-30T05:53:21;150.07;;;9.20;;
5630;SDS011;2837;50.990;7.124;2023-07-30T05:55:47;149.60;;;9.43;;
5630;SDS011;2837;50.990;7.124;2023-07-30T05:58:13;149.40;;;9.20;;
5630;SDS011;2837;50.990;7.124;2023-07-30T06:00:39;149.30;;;9.30;;
5630;SDS011;2837;50.990;7.124;2023-07-30T06:03:05;149.07;;;9.47;;
5630;SDS011;2837;50.990;7.124;2023-07-30T06:05:38;149.10;;;9.17;;
5630;SDS011;2837;50.990;7.124;2023-07-30T06:08:04;151.87;;;9.30;;
5630;SDS011;2837;50.990;7.124;2023-07-30T06:10:30;148.43;;;9.37;;
5630;SDS011;2837;50.990;7.124;2023-07-30T06:12:56;149.53;;;9.47;;
5630;SDS011;2837;50.990;7.124;2023-07-30T06:15:22;150.77;;;8.80;;
5630;SDS011;2837;50.990;7.124;2023-07-30T06:17:48;148.80;;;9.50;;
5630;SDS011;2837;50.990;7.124;2023-07-30T06:20:14;151.87;;;9.93;;
5630;SDS011;2837;50.990;7.124;2023-07-30T06:22:40;149.90;;;9.10;;
5630;SDS011;2837;50.990;7.124;2023-07-30T06:25:06;148.87;;;9.53;;
5630;SDS011;2837;50.990;7.124;2023-07-30T06:27:32;148.80;;;9.23;;
5630;SDS011;2837;50.990;7.124;2023-07-30T06:29:58;150.47;;;9.17;;
5630;SDS011;2837;50.990;7.124;2023-07-30T06:32:24;150.07;;;9.37;;
5630;SDS011;2837;50.990;7.124;2023-07-30T06:34:50;151.37;;;9.67;;
5630;SDS011;2837;50.990;7.124;2023-07-30T06:37:16;148.87;;;9.47;;
5630;SDS011;2837;50.990;7.124;2023-07-30T06:39:42;150.07;;;9.20;;
5630;SDS011;2837;50.990;7.124;2023-07-30T06:42:08;150.87;;;9.50;;
5630;SDS011;2837;50.990;7.124;2023-07-30T06:44:34;149.90;;;9.27;;
5630;SDS011;2837;50.990;7.124;2023-07-30T06:47:00;148.77;;;8.93;;
5630;SDS011;2837;50.990;7.124;2023-07-30T06:49:26;152.93;;;10.50;;
5630;SDS011;2837;50.990;7.124;2023-07-30T06:51:52;149.27;;;9.63;;
5630;SDS011;2837;50.990;7.124;2023-07-30T06:54:19;148.17;;;9.87;;
5630;SDS011;2837;50.990;7.124;2023-07-30T06:56:45;151.50;;;10.00;;
5630;SDS011;2837;50.990;7.124;2023-07-30T06:59:11;150.87;;;9.70;;
5630;SDS011;2837;50.990;7.124;2023-07-30T07:01:37;147.97;;;9.53;;
5630;SDS011;2837;50.990;7.124;2023-07-30T07:04:03;148.20;;;9.27;;
5630;SDS011;2837;50.990;7.124;2023-07-30T07:06:29;151.57;;;9.50;;
5630;SDS011;2837;50.990;7.124;2023-07-30T07:08:55;147.70;;;9.00;;
5630;SDS011;2837;50.990;7.124;2023-07-30T07:11:21;149.00;;;10.00;;
5630;SDS011;2837;50.990;7.124;2023-07-30T07:13:46;149.07;;;9.30;;
5630;SDS011;2837;50.990;7.124;2023-07-30T07:16:12;151.77;;;9.67;;
5630;SDS011;2837;50.990;7.124;2023-07-30T07:18:38;149.47;;;9.33;;
5630;SDS011;2837;50.990;7.124;2023-07-30T07:21:04;148.63;;;9.63;;
5630;SDS011;2837;50.990;7.124;2023-07-30T07:23:30;148.47;;;9.40;;
5630;SDS011;2837;50.990;7.124;2023-07-30T07:25:57;151.17;;;9.30;;
5630;SDS011;2837;50.990;7.124;2023-07-30T07:28:22;147.87;;;8.70;;
5630;SDS011;2837;50.990;7.124;2023-07-30T07:30:48;159.17;;;9.37;;
5630;SDS011;2837;50.990;7.124;2023-07-30T07:33:15;149.17;;;9.27;;
5630;SDS011;2837;50.990;7.124;2023-07-30T07:35:41;148.97;;;8.43;;
5630;SDS011;2837;50.990;7.124;2023-07-30T07:38:07;149.03;;;9.40;;
5630;SDS011;2837;50.990;7.124;2023-07-30T07:40:39;148.87;;;9.63;;
5630;SDS011;2837;50.990;7.124;2023-07-30T07:43:05;151.37;;;9.70;;
5630;SDS011;2837;50.990;7.124;2023-07-30T07:45:32;148.67;;;9.13;;
5630;SDS011;2837;50.990;7.124;2023-07-30T07:47:57;153.60;;;9.63;;
5630;SDS011;2837;50.990;7.124;2023-07-30T07:50:23;150.50;;;10.00;;
5630;SDS011;2837;50.990;7.124;2023-07-30T07:52:49;150.90;;;9.40;;
5630;SDS011;2837;50.990;7.124;2023-07-30T07:55:16;147.70;;;9.20;;
5630;SDS011;2837;50.990;7.124;2023-07-30T07:57:42;148.47;;;8.93;;
5630;SDS011;2837;50.990;7.124;2023-07-30T08:00:08;147.00;;;8.87;;
5630;SDS011;2837;50.990;7.124;2023-07-30T08:02:34;148.77;;;8.90;;
5630;SDS011;2837;50.990;7.124;2023-07-30T08:05:00;148.07;;;8.80;;
5630;SDS011;2837;50.990;7.124;2023-07-30T08:07:26;147.70;;;8.80;;
5630;SDS011;2837;50.990;7.124;2023-07-30T08:09:52;152.93;;;9.50;;
5630;SDS011;2837;50.990;7.124;2023-07-30T08:12:19;146.13;;;9.10;;
5630;SDS011;2837;50.990;7.124;2023-07-30T08:14:45;148.57;;;9.17;;
5630;SDS011;2837;50.990;7.124;2023-07-30T08:17:11;148.87;;;10.13;;
5630;SDS011;2837;50.990;7.124;2023-07-30T08:19:37;149.03;;;9.17;;
5630;SDS011;2837;50.990;7.124;2023-07-30T08:22:03;150.67;;;9.80;;
5630;SDS011;2837;50.990;7.124;2023-07-30T08:24:29;148.27;;;9.50;;
5630;SDS011;2837;50.990;7.124;2023-07-30T08:26:55;149.17;;;9.50;;
5630;SDS011;2837;50.990;7.124;2023-07-30T08:29:21;148.67;;;9.70;;
5630;SDS011;2837;50.990;7.124;2023-07-30T08:31:47;149.80;;;9.20;;
5630;SDS011;2837;50.990;7.124;2023-07-30T08:34:13;147.10;;;8.60;;
5630;SDS011;2837;50.990;7.124;2023-07-30T08:36:39;150.20;;;8.93;;
5630;SDS011;2837;50.990;7.124;2023-07-30T08:39:05;149.47;;;8.83;;
5630;SDS011;2837;50.990;7.124;2023-07-30T08:41:31;147.27;;;9.20;;
5630;SDS011;2837;50.990;7.124;2023-07-30T08:43:57;147.77;;;8.80;;
5630;SDS011;2837;50.990;7.124;2023-07-30T08:46:23;150.17;;;9.30;;
5630;SDS011;2837;50.990;7.124;2023-07-30T08:48:49;150.53;;;9.50;;
5630;SDS011;2837;50.990;7.124;2023-07-30T08:51:15;153.00;;;8.87;;
5630;SDS011;2837;50.990;7.124;2023-07-30T08:53:42;148.17;;;9.40;;
5630;SDS011;2837;50.990;7.124;2023-07-30T08:56:07;148.53;;;9.40;;
5630;SDS011;2837;50.990;7.124;2023-07-30T08:58:34;148.53;;;9.40;;
5630;SDS011;2837;50.990;7.124;2023-07-30T09:01:01;153.33;;;9.83;;
5630;SDS011;2837;50.990;7.124;2023-07-30T09:03:33;149.70;;;9.83;;
5630;SDS011;2837;50.990;7.124;2023-07-30T09:06:01;151.07;;;9.80;;
5630;SDS011;2837;50.990;7.124;2023-07-30T09:08:27;150.20;;;9.53;;
5630;SDS011;2837;50.990;7.124;2023-07-30T09:10:53;151.43;;;9.30;;
5630;SDS011;2837;50.990;7.124;2023-07-30T09:13:22;148.20;;;9.80;;
5630;SDS011;2837;50.990;7.124;2023-07-30T09:15:50;147.83;;;9.70;;
5630;SDS011;2837;50.990;7.124;2023-07-30T09:18:16;151.57;;;9.77;;
5630;SDS011;2837;50.990;7.124;2023-07-30T09:20:43;153.90;;;10.30;;
5630;SDS011;2837;50.990;7.124;2023-07-30T09:23:11;152.43;;;9.10;;
5630;SDS011;2837;50.990;7.124;2023-07-30T09:25:37;151.77;;;9.60;;
5630;SDS011;2837;50.990;7.124;2023-07-30T09:28:05;148.57;;;8.73;;
5630;SDS011;2837;50.990;7.124;2023-07-30T09:30:31;147.07;;;8.50;;
5630;SDS011;2837;50.990;7.124;2023-07-30T09:32:58;150.40;;;8.00;;
5630;SDS011;2837;50.990;7.124;2023-07-30T09:35:24;148.10;;;8.40;;
5630;SDS011;2837;50.990;7.124;2023-07-30T09:37:57;148.27;;;8.77;;
5630;SDS011;2837;50.990;7.124;2023-07-30T09:40:34;147.77;;;9.17;;
5630;SDS011;2837;50.990;7.124;2023-07-30T09:43:02;149.47;;;9.00;;
5630;SDS011;2837;50.990;7.124;2023-07-30T09:45:28;148.90;;;8.40;;
5630;SDS011;2837;50.990;7.124;2023-07-30T09:47:58;151.77;;;8.33;;
5630;SDS011;2837;50.990;7.124;2023-07-30T09:50:24;147.10;;;8.43;;
5630;SDS011;2837;50.990;7.124;2023-07-30T09:52:50;149.00;;;8.73;;
5630;SDS011;2837;50.990;7.124;2023-07-30T09:55:16;146.17;;;8.53;;
5630;SDS011;2837;50.990;7.124;2023-07-30T09:57:44;148.70;;;8.67;;
5630;SDS011;2837;50.990;7.124;2023-07-30T10:00:10;149.47;;;8.27;;
5630;SDS011;2837;50.990;7.124;2023-07-30T10:02:39;147.47;;;7.83;;
5630;SDS011;2837;50.990;7.124;2023-07-30T10:05:08;150.30;;;9.53;;
5630;SDS011;2837;50.990;7.124;2023-07-30T10:07:44;152.20;;;8.60;;
5630;SDS011;2837;50.990;7.124;2023-07-30T10:10:22;149.47;;;7.70;;
5630;SDS011;2837;50.990;7.124;2023-07-30T10:12:49;148.50;;;7.70;;
5630;SDS011;2837;50.990;7.124;2023-07-30T10:15:18;148.50;;;8.10;;
5630;SDS011;2837;50.990;7.124;2023-07-30T10:17:46;149.87;;;7.20;;
5630;SDS011;2837;50.990;7.124;2023-07-30T10:20:19;145.77;;;7.37;;
5630;SDS011;2837;50.990;7.124;2023-07-30T10:22:47;148.13;;;8.30;;
5630;SDS011;2837;50.990;7.124;2023-07-30T10:25:17;149.00;;;7.90;;
5630;SDS011;2837;50.990;7.124;2023-07-30T10:27:47;148.10;;;8.10;;
5630;SDS011;2837;50.990;7.124;2023-07-30T10:30:18;148.07;;;8.20;;
5630;SDS011;2837;50.990;7.124;2023-07-30T10:33:01;149.47;;;8.10;;
5630;SDS011;2837;50.990;7.124;2023-07-30T10:38:12;148.30;;;8.57;;
5630;SDS011;2837;50.990;7.124;2023-07-30T10:40:39;148.57;;;8.90;;
5630;SDS011;2837;50.990;7.124;2023-07-30T10:43:15;147.20;;;7.93;;
5630;SDS011;2837;50.990;7.124;2023-07-30T10:45:48;150.63;;;9.10;;
5630;SDS011;2837;50.990;7.124;2023-07-30T10:48:14;146.60;;;7.60;;
5630;SDS011;2837;50.990;7.124;2023-07-30T10:50:40;148.57;;;7.83;;
5630;SDS011;2837;50.990;7.124;2023-07-30T10:53:07;150.27;;;8.10;;
5630;SDS011;2837;50.990;7.124;2023-07-30T10:55:33;147.97;;;7.27;;
5630;SDS011;2837;50.990;7.124;2023-07-30T10:57:59;148.83;;;8.87;;
5630;SDS011;2837;50.990;7.124;2023-07-30T11:00:25;150.67;;;8.20;;
5630;SDS011;2837;50.990;7.124;2023-07-30T11:02:54;147.70;;;8.33;;
5630;SDS011;2837;50.990;7.124;2023-07-30T11:05:20;149.87;;;8.37;;
5630;SDS011;2837;50.990;7.124;2023-07-30T11:07:51;147.07;;;8.17;;
5630;SDS011;2837;50.990;7.124;2023-07-30T11:10:17;148.60;;;8.80;;
5630;SDS011;2837;50.990;7.124;2023-07-30T11:12:43;148.07;;;8.83;;
5630;SDS011;2837;50.990;7.124;2023-07-30T11:15:09;147.17;;;8.67;;
5630;SDS011;2837;50.990;7.124;2023-07-30T11:17:35;145.80;;;7.63;;
5630;SDS011;2837;50.990;7.124;2023-07-30T11:20:01;147.30;;;8.80;;
5630;SDS011;2837;50.990;7.124;2023-07-30T11:22:31;145.30;;;7.97;;
5630;SDS011;2837;50.990;7.124;2023-07-30T11:24:57;151.23;;;8.70;;
5630;SDS011;2837;50.990;7.124;2023-07-30T11:27:24;146.37;;;7.77;;
5630;SDS011;2837;50.990;7.124;2023-07-30T11:29:53;147.97;;;7.90;;
5630;SDS011;2837;50.990;7.124;2023-07-30T11:32:20;145.43;;;8.50;;
5630;SDS011;2837;50.990;7.124;2023-07-30T11:34:48;146.80;;;8.27;;
5630;SDS011;2837;50.990;7.124;2023-07-30T11:37:14;146.87;;;8.20;;
5630;SDS011;2837;50.990;7.124;2023-07-30T11:39:40;145.60;;;7.63;;
5630;SDS011;2837;50.990;7.124;2023-07-30T11:42:06;149.00;;;8.73;;
5630;SDS011;2837;50.990;7.124;2023-07-30T11:44:36;146.23;;;7.83;;
5630;SDS011;2837;50.990;7.124;2023-07-30T11:47:06;145.17;;;7.97;;
5630;SDS011;2837;50.990;7.124;2023-07-30T11:49:32;146.57;;;8.17;;
5630;SDS011;2837;50.990;7.124;2023-07-30T11:52:07;145.27;;;7.67;;
5630;SDS011;2837;50.990;7.124;2023-07-30T11:54:34;144.77;;;7.60;;
5630;SDS011;2837;50.990;7.124;2023-07-30T11:57:00;145.87;;;7.37;;
5630;SDS011;2837;50.990;7.124;2023-07-30T11:59:26;144.83;;;7.63;;
5630;SDS011;2837;50.990;7.124;2023-07-30T12:01:52;145.23;;;8.20;;
5630;SDS011;2837;50.990;7.124;2023-07-30T12:04:18;157.10;;;8.53;;
5630;SDS011;2837;50.990;7.124;2023-07-30T12:06:45;145.47;;;8.20;;
5630;SDS011;2837;50.990;7.124;2023-07-30T12:09:22;145.80;;;7.97;;
5630;SDS011;2837;50.990;7.124;2023-07-30T12:11:51;145.63;;;8.20;;
5630;SDS011;2837;50.990;7.124;2023-07-30T12:14:19;145.93;;;7.83;;
5630;SDS011;2837;50.990;7.124;2023-07-30T12:16:46;145.53;;;7.77;;
5630;SDS011;2837;50.990;7.124;2023-07-30T12:19:12;145.37;;;8.10;;
5630;SDS011;2837;50.990;7.124;2023-07-30T12:21:38;148.87;;;9.20;;
5630;SDS011;2837;50.990;7.124;2023-07-30T12:24:04;148.80;;;10.03;;
5630;SDS011;2837;50.990;7.124;2023-07-30T12:26:30;147.97;;;8.97;;
5630;SDS011;2837;50.990;7.124;2023-07-30T12:28:56;145.50;;;8.20;;
5630;SDS011;2837;50.990;7.124;2023-07-30T12:31:22;150.97;;;8.90;;
5630;SDS011;2837;50.990;7.124;2023-07-30T12:33:48;149.87;;;8.80;;
5630;SDS011;2837;50.990;7.124;2023-07-30T12:36:13;147.10;;;7.27;;
5630;SDS011;2837;50.990;7.124;2023-07-30T12:38:39;147.50;;;8.63;;
5630;SDS011;2837;50.990;7.124;2023-07-30T12:41:05;146.97;;;8.47;;
5630;SDS011;2837;50.990;7.124;2023-07-30T12:43:31;145.10;;;8.67;;
5630;SDS011;2837;50.990;7.124;2023-07-30T12:45:56;145.50;;;8.77;;
5630;SDS011;2837;50.990;7.124;2023-07-30T12:48:22;147.13;;;8.73;;
5630;SDS011;2837;50.990;7.124;2023-07-30T12:50:48;151.13;;;8.93;;
5630;SDS011;2837;50.990;7.124;2023-07-30T12:53:14;149.87;;;9.20;;
5630;SDS011;2837;50.990;7.124;2023-07-30T12:55:40;147.60;;;8.60;;
5630;SDS011;2837;50.990;7.124;2023-07-30T12:58:05;146.67;;;8.30;;
5630;SDS011;2837;50.990;7.124;2023-07-30T13:00:32;148.87;;;8.07;;
5630;SDS011;2837;50.990;7.124;2023-07-30T13:02:58;146.47;;;7.73;;
5630;SDS011;2837;50.990;7.124;2023-07-30T13:05:24;145.90;;;7.40;;
5630;SDS011;2837;50.990;7.124;2023-07-30T13:07:50;146.90;;;7.70;;
5630;SDS011;2837;50.990;7.124;2023-07-30T13:10:16;145.97;;;7.17;;
5630;SDS011;2837;50.990;7.124;2023-07-30T13:12:42;147.10;;;7.57;;
5630;SDS011;2837;50.990;7.124;2023-07-30T13:15:08;144.87;;;7.87;;
5630;SDS011;2837;50.990;7.124;2023-07-30T13:17:34;147.27;;;8.40;;
5630;SDS011;2837;50.990;7.124;2023-07-30T13:20:00;146.07;;;7.90;;
5630;SDS011;2837;50.990;7.124;2023-07-30T13:22:26;144.80;;;7.43;;
5630;SDS011;2837;50.990;7.124;2023-07-30T13:24:52;148.53;;;8.70;;
5630;SDS011;2837;50.990;7.124;2023-07-30T13:27:18;150.27;;;8.50;;
5630;SDS011;2837;50.990;7.124;2023-07-30T13:29:44;149.57;;;8.30;;
5630;SDS011;2837;50.990;7.124;2023-07-30T13:32:10;146.60;;;8.03;;
5630;SDS011;2837;50.990;7.124;2023-07-30T13:34:36;145.77;;;7.40;;
5630;SDS011;2837;50.990;7.124;2023-07-30T13:37:01;147.47;;;7.97;;
5630;SDS011;2837;50.990;7.124;2023-07-30T13:39:28;147.10;;;7.77;;
5630;SDS011;2837;50.990;7.124;2023-07-30T13:41:54;148.40;;;8.73;;
5630;SDS011;2837;50.990;7.124;2023-07-30T13:44:20;147.40;;;8.67;;
5630;SDS011;2837;50.990;7.124;2023-07-30T13:46:46;149.37;;;7.90;;
5630;SDS011;2837;50.990;7.124;2023-07-30T13:49:11;145.93;;;8.13;;
5630;SDS011;2837;50.990;7.124;2023-07-30T13:51:37;146.57;;;8.63;;
5630;SDS011;2837;50.990;7.124;2023-07-30T13:54:03;145.57;;;7.17;;
5630;SDS011;2837;50.990;7.124;2023-07-30T13:56:30;144.20;;;7.40;;
5630;SDS011;2837;50.990;7.124;2023-07-30T13:58:56;145.43;;;8.80;;
5630;SDS011;2837;50.990;7.124;2023-07-30T14:01:22;145.47;;;7.90;;
5630;SDS011;2837;50.990;7.124;2023-07-30T14:03:48;148.97;;;8.30;;
5630;SDS011;2837;50.990;7.124;2023-07-30T14:06:14;149.07;;;9.17;;
5630;SDS011;2837;50.990;7.124;2023-07-30T14:08:40;145.67;;;7.23;;
5630;SDS011;2837;50.990;7.124;2023-07-30T14:11:06;145.47;;;7.83;;
5630;SDS011;2837;50.990;7.124;2023-07-30T14:13:32;146.10;;;8.17;;
5630;SDS011;2837;50.990;7.124;2023-07-30T14:15:58;144.17;;;7.90;;
5630;SDS011;2837;50.990;7.124;2023-07-30T14:18:24;144.47;;;8.50;;
5630;SDS011;2837;50.990;7.124;2023-07-30T14:20:50;148.60;;;8.17;;
5630;SDS011;2837;50.990;7.124;2023-07-30T14:23:16;148.30;;;8.00;;
5630;SDS011;2837;50.990;7.124;2023-07-30T14:25:41;145.00;;;8.03;;
5630;SDS011;2837;50.990;7.124;2023-07-30T14:28:07;145.03;;;8.00;;
5630;SDS011;2837;50.990;7.124;2023-07-30T14:30:33;146.77;;;9.17;;
5630;SDS011;2837;50.990;7.124;2023-07-30T14:33:00;145.10;;;8.13;;
5630;SDS011;2837;50.990;7.124;2023-07-30T14:35:28;146.97;;;8.47;;
5630;SDS011;2837;50.990;7.124;2023-07-30T14:37:54;143.87;;;7.60;;
5630;SDS011;2837;50.990;7.124;2023-07-30T14:40:20;146.30;;;7.70;;
5630;SDS011;2837;50.990;7.124;2023-07-30T14:42:46;145.47;;;8.73;;
5630;SDS011;2837;50.990;7.124;2023-07-30T14:45:12;145.40;;;8.17;;
5630;SDS011;2837;50.990;7.124;2023-07-30T14:47:38;144.30;;;7.83;;
5630;SDS011;2837;50.990;7.124;2023-07-30T14:50:05;145.97;;;8.57;;
5630;SDS011;2837;50.990;7.124;2023-07-30T14:52:31;145.33;;;7.43;;
5630;SDS011;2837;50.990;7.124;2023-07-30T14:54:56;143.43;;;7.97;;
5630;SDS011;2837;50.990;7.124;2023-07-30T14:57:22;145.13;;;8.13;;
5630;SDS011;2837;50.990;7.124;2023-07-30T14:59:48;144.57;;;7.80;;
5630;SDS011;2837;50.990;7.124;2023-07-30T15:02:14;151.97;;;8.87;;
5630;SDS011;2837;50.990;7.124;2023-07-30T15:04:40;152.60;;;9.00;;
5630;SDS011;2837;50.990;7.124;2023-07-30T15:07:06;144.80;;;7.57;;
5630;SDS011;2837;50.990;7.124;2023-07-30T15:09:33;144.53;;;7.37;;
5630;SDS011;2837;50.990;7.124;2023-07-30T15:12:00;143.77;;;7.30;;
5630;SDS011;2837;50.990;7.124;2023-07-30T15:14:26;144.17;;;7.70;;
5630;SDS011;2837;50.990;7.124;2023-07-30T15:16:52;144.60;;;7.60;;
5630;SDS011;2837;50.990;7.124;2023-07-30T15:19:17;148.67;;;8.20;;
5630;SDS011;2837;50.990;7.124;2023-07-30T15:21:43;147.43;;;7.70;;
5630;SDS011;2837;50.990;7.124;2023-07-30T15:24:09;145.93;;;7.57;;
5630;SDS011;2837;50.990;7.124;2023-07-30T15:26:35;146.10;;;7.70;;
5630;SDS011;2837;50.990;7.124;2023-07-30T15:29:01;144.97;;;8.10;;
5630;SDS011;2837;50.990;7.124;2023-07-30T15:31:28;147.13;;;8.00;;
5630;SDS011;2837;50.990;7.124;2023-07-30T15:33:54;144.27;;;7.43;;
5630;SDS011;2837;50.990;7.124;2023-07-30T15:36:21;145.37;;;7.70;;
5630;SDS011;2837;50.990;7.124;2023-07-30T15:38:47;144.90;;;7.97;;
5630;SDS011;2837;50.990;7.124;2023-07-30T15:41:18;144.70;;;7.70;;
5630;SDS011;2837;50.990;7.124;2023-07-30T15:43:44;143.57;;;7.07;;
5630;SDS011;2837;50.990;7.124;2023-07-30T15:46:12;146.20;;;8.10;;
5630;SDS011;2837;50.990;7.124;2023-07-30T15:48:38;146.00;;;7.70;;
5630;SDS011;2837;50.990;7.124;2023-07-30T15:51:04;145.47;;;8.20;;
5630;SDS011;2837;50.990;7.124;2023-07-30T15:53:29;146.33;;;7.00;;
5630;SDS011;2837;50.990;7.124;2023-07-30T15:55:55;144.17;;;7.50;;
5630;SDS011;2837;50.990;7.124;2023-07-30T15:58:25;144.43;;;8.07;;
5630;SDS011;2837;50.990;7.124;2023-07-30T16:00:51;144.57;;;7.70;;
5630;SDS011;2837;50.990;7.124;2023-07-30T16:03:17;143.67;;;7.63;;
5630;SDS011;2837;50.990;7.124;2023-07-30T16:05:46;145.47;;;8.47;;
5630;SDS011;2837;50.990;7.124;2023-07-30T16:08:13;147.83;;;7.37;;
5630;SDS011;2837;50.990;7.124;2023-07-30T16:10:39;144.80;;;7.53;;
5630;SDS011;2837;50.990;7.124;2023-07-30T16:13:05;144.87;;;7.80;;
5630;SDS011;2837;50.990;7.124;2023-07-30T16:15:31;144.17;;;8.00;;
5630;SDS011;2837;50.990;7.124;2023-07-30T16:17:57;144.70;;;7.80;;
5630;SDS011;2837;50.990;7.124;2023-07-30T16:20:23;146.47;;;7.90;;
5630;SDS011;2837;50.990;7.124;2023-07-30T16:22:49;151.30;;;7.73;;
5630;SDS011;2837;50.990;7.124;2023-07-30T16:25:15;144.27;;;7.57;;
5630;SDS011;2837;50.990;7.124;2023-07-30T16:27:40;146.00;;;7.80;;
5630;SDS011;2837;50.990;7.124;2023-07-30T16:30:07;146.37;;;8.67;;
5630;SDS011;2837;50.990;7.124;2023-07-30T16:32:33;145.07;;;7.13;;
5630;SDS011;2837;50.990;7.124;2023-07-30T16:34:59;146.03;;;8.07;;
5630;SDS011;2837;50.990;7.124;2023-07-30T16:37:24;144.20;;;7.40;;
5630;SDS011;2837;50.990;7.124;2023-07-30T16:39:50;143.00;;;7.50;;
5630;SDS011;2837;50.990;7.124;2023-07-30T16:42:18;143.47;;;7.70;;
5630;SDS011;2837;50.990;7.124;2023-07-30T16:44:47;143.83;;;7.37;;
5630;SDS011;2837;50.990;7.124;2023-07-30T16:47:13;146.47;;;8.00;;
5630;SDS011;2837;50.990;7.124;2023-07-30T16:49:39;142.77;;;7.50;;
5630;SDS011;2837;50.990;7.124;2023-07-30T16:52:05;143.07;;;7.60;;
5630;SDS011;2837;50.990;7.124;2023-07-30T16:54:31;145.77;;;7.80;;
5630;SDS011;2837;50.990;7.124;2023-07-30T16:56:57;146.37;;;8.77;;
5630;SDS011;2837;50.990;7.124;2023-07-30T16:59:23;144.60;;;7.90;;
5630;SDS011;2837;50.990;7.124;2023-07-30T17:01:49;144.57;;;7.97;;
5630;SDS011;2837;50.990;7.124;2023-07-30T17:04:14;143.50;;;7.93;;
5630;SDS011;2837;50.990;7.124;2023-07-30T17:06:40;143.77;;;7.93;;
5630;SDS011;2837;50.990;7.124;2023-07-30T17:09:06;144.47;;;8.13;;
5630;SDS011;2837;50.990;7.124;2023-07-30T17:11:32;144.77;;;8.30;;
5630;SDS011;2837;50.990;7.124;2023-07-30T17:13:58;144.90;;;8.07;;
5630;SDS011;2837;50.990;7.124;2023-07-30T17:16:24;143.50;;;7.50;;
5630;SDS011;2837;50.990;7.124;2023-07-30T17:18:50;143.87;;;8.07;;
5630;SDS011;2837;50.990;7.124;2023-07-30T17:21:17;148.30;;;8.70;;
5630;SDS011;2837;50.990;7.124;2023-07-30T17:23:43;145.87;;;7.93;;
5630;SDS011;2837;50.990;7.124;2023-07-30T17:26:08;145.47;;;7.37;;
5630;SDS011;2837;50.990;7.124;2023-07-30T17:28:34;146.10;;;8.13;;
5630;SDS011;2837;50.990;7.124;2023-07-30T17:31:00;145.57;;;8.57;;
5630;SDS011;2837;50.990;7.124;2023-07-30T17:33:26;143.60;;;7.60;;
5630;SDS011;2837;50.990;7.124;2023-07-30T17:35:52;145.13;;;7.93;;
5630;SDS011;2837;50.990;7.124;2023-07-30T17:38:18;144.20;;;7.90;;
5630;SDS011;2837;50.990;7.124;2023-07-30T17:40:51;146.60;;;8.20;;
5630;SDS011;2837;50.990;7.124;2023-07-30T17:43:18;145.33;;;7.20;;
5630;SDS011;2837;50.990;7.124;2023-07-30T17:45:43;147.80;;;8.10;;
5630;SDS011;2837;50.990;7.124;2023-07-30T17:48:09;146.40;;;7.83;;
5630;SDS011;2837;50.990;7.124;2023-07-30T17:50:35;151.50;;;8.10;;
5630;SDS011;2837;50.990;7.124;2023-07-30T17:53:02;151.53;;;8.10;;
5630;SDS011;2837;50.990;7.124;2023-07-30T17:55:28;146.00;;;7.93;;
5630;SDS011;2837;50.990;7.124;2023-07-30T17:57:53;146.63;;;8.20;;
5630;SDS011;2837;50.990;7.124;2023-07-30T18:00:19;145.77;;;7.27;;
5630;SDS011;2837;50.990;7.124;2023-07-30T18:02:45;144.90;;;8.47;;
5630;SDS011;2837;50.990;7.124;2023-07-30T18:05:11;146.17;;;7.93;;
5630;SDS011;2837;50.990;7.124;2023-07-30T18:07:37;147.70;;;8.50;;
5630;SDS011;2837;50.990;7.124;2023-07-30T18:10:03;148.70;;;8.13;;
5630;SDS011;2837;50.990;7.124;2023-07-30T18:12:29;144.97;;;7.50;;
5630;SDS011;2837;50.990;7.124;2023-07-30T18:14:55;146.97;;;8.40;;
5630;SDS011;2837;50.990;7.124;2023-07-30T18:17:21;146.20;;;7.20;;
5630;SDS011;2837;50.990;7.124;2023-07-30T18:19:49;148.10;;;7.70;;
5630;SDS011;2837;50.990;7.124;2023-07-30T18:22:14;149.10;;;8.03;;
5630;SDS011;2837;50.990;7.124;2023-07-30T18:24:40;150.30;;;8.37;;
5630;SDS011;2837;50.990;7.124;2023-07-30T18:27:06;145.43;;;7.87;;
5630;SDS011;2837;50.990;7.124;2023-07-30T18:29:33;146.97;;;7.80;;
5630;SDS011;2837;50.990;7.124;2023-07-30T18:32:05;149.37;;;7.70;;
5630;SDS011;2837;50.990;7.124;2023-07-30T18:34:35;146.27;;;8.50;;
5630;SDS011;2837;50.990;7.124;2023-07-30T18:37:02;147.07;;;7.73;;
5630;SDS011;2837;50.990;7.124;2023-07-30T18:39:28;149.40;;;8.07;;
5630;SDS011;2837;50.990;7.124;2023-07-30T18:41:54;146.27;;;8.07;;
5630;SDS011;2837;50.990;7.124;2023-07-30T18:44:19;146.80;;;8.07;;
5630;SDS011;2837;50.990;7.124;2023-07-30T18:46:45;150.33;;;7.20;;
5630;SDS011;2837;50.990;7.124;2023-07-30T18:49:11;146.57;;;8.23;;
5630;SDS011;2837;50.990;7.124;2023-07-30T18:51:37;146.27;;;7.30;;
5630;SDS011;2837;50.990;7.124;2023-07-30T18:54:03;147.50;;;8.37;;
5630;SDS011;2837;50.990;7.124;2023-07-30T18:56:29;149.70;;;8.30;;
5630;SDS011;2837;50.990;7.124;2023-07-30T18:58:56;148.07;;;8.17;;
5630;SDS011;2837;50.990;7.124;2023-07-30T19:01:22;148.47;;;8.50;;
5630;SDS011;2837;50.990;7.124;2023-07-30T19:03:48;148.37;;;9.50;;
5630;SDS011;2837;50.990;7.124;2023-07-30T19:06:14;149.80;;;8.80;;
5630;SDS011;2837;50.990;7.124;2023-07-30T19:08:40;147.87;;;8.70;;
5630;SDS011;2837;50.990;7.124;2023-07-30T19:11:06;153.73;;;9.33;;
5630;SDS011;2837;50.990;7.124;2023-07-30T19:13:32;148.27;;;8.40;;
5630;SDS011;2837;50.990;7.124;2023-07-30T19:15:58;150.33;;;8.90;;
5630;SDS011;2837;50.990;7.124;2023-07-30T19:18:24;148.63;;;9.10;;
5630;SDS011;2837;50.990;7.124;2023-07-30T19:20:50;148.53;;;8.57;;
5630;SDS011;2837;50.990;7.124;2023-07-30T19:23:16;149.20;;;8.77;;
5630;SDS011;2837;50.990;7.124;2023-07-30T19:25:46;148.67;;;8.83;;
5630;SDS011;2837;50.990;7.124;2023-07-30T19:28:12;151.17;;;9.33;;
5630;SDS011;2837;50.990;7.124;2023-07-30T19:30:38;147.17;;;8.57;;
5630;SDS011;2837;50.990;7.124;2023-07-30T19:33:04;148.67;;;8.60;;
5630;SDS011;2837;50.990;7.124;2023-07-30T19:35:30;157.33;;;9.73;;
5630;SDS011;2837;50.990;7.124;2023-07-30T19:37:56;147.47;;;8.50;;
5630;SDS011;2837;50.990;7.124;2023-07-30T19:40:22;150.27;;;9.63;;
5630;SDS011;2837;50.990;7.124;2023-07-30T19:42:48;153.00;;;9.23;;
5630;SDS011;2837;50.990;7.124;2023-07-30T19:45:14;147.67;;;8.97;;
5630;SDS011;2837;50.990;7.124;2023-07-30T19:47:40;146.30;;;8.30;;